createdAt,value
2023-01-17T04:53:48.895Z,1.20
2023-01-17T04:58:52.374Z,1.30
2023-01-17T05:03:55.820Z,1.90
2023-01-17T05:09:00.669Z,1.67
2023-01-17T05:14:03.903Z,2.10
2023-01-17T05:19:07.238Z,2.27
2023-01-17T05:24:11.832Z,2.50
2023-01-17T05:29:15.372Z,2.30
2023-01-17T05:34:19.028Z,3.00
2023-01-17T05:39:23.893Z,2.83
2023-01-17T05:44:27.738Z,1.20
2023-01-17T05:49:31.036Z,1.43
2023-01-17T05:54:35.697Z,1.23
2023-01-17T05:59:39.002Z,1.43
2023-01-17T06:04:42.229Z,1.53
2023-01-17T06:09:47.091Z,2.20
2023-01-17T06:14:50.765Z,1.60
2023-01-17T06:19:54.084Z,1.60
2023-01-17T06:25:00.113Z,2.00
2023-01-17T06:30:03.560Z,1.90
2023-01-17T06:35:07.436Z,1.70
2023-01-17T06:40:13.721Z,1.93
2023-01-17T06:45:17.077Z,1.60
2023-01-17T06:50:20.883Z,1.40
2023-01-17T06:55:27.065Z,1.70
2023-01-17T07:00:31.119Z,1.87
2023-01-17T07:05:36.396Z,2.17
2023-01-17T07:10:41.285Z,1.40
2023-01-17T07:15:44.799Z,1.77
2023-01-17T07:20:49.090Z,2.00
2023-01-17T07:25:54.186Z,2.50
2023-01-17T07:30:57.548Z,4.60
2023-01-17T07:36:00.967Z,2.00
2023-01-17T07:41:06.514Z,1.60
2023-01-17T07:46:09.955Z,1.87
2023-01-17T07:51:13.115Z,2.63
2023-01-17T07:56:18.018Z,2.30
2023-01-17T08:01:21.705Z,2.30
2023-01-17T08:06:26.188Z,1.57
2023-01-17T08:11:31.255Z,2.10
2023-01-17T08:16:34.641Z,3.70
2023-01-17T08:21:37.928Z,3.03
2023-01-17T08:26:42.605Z,2.03
2023-01-17T08:31:46.019Z,1.90
2023-01-17T08:36:49.531Z,2.20
2023-01-17T08:41:54.179Z,1.97
2023-01-17T08:46:57.512Z,2.17
2023-01-17T08:52:00.931Z,2.10
2023-01-17T08:57:05.822Z,1.90
2023-01-17T09:02:15.090Z,1.80
2023-01-17T09:07:19.474Z,1.40
2023-01-17T09:12:24.196Z,1.40
2023-01-17T09:17:27.625Z,1.20
2023-01-17T09:22:30.948Z,1.60
2023-01-17T09:27:36.300Z,1.60
2023-01-17T09:32:39.897Z,1.63
2023-01-17T09:37:43.452Z,1.50
2023-01-17T09:42:50.359Z,1.40
2023-01-17T09:47:55.097Z,2.30
2023-01-17T09:53:01.737Z,2.67
2023-01-17T09:58:08.481Z,2.50
2023-01-17T10:03:24.010Z,8.67
2023-01-17T10:08:34.590Z,9.10
2023-01-17T10:13:44.791Z,5.77
2023-01-17T10:18:57.383Z,2.60
2023-01-17T10:24:19.711Z,1.80
2023-01-17T10:29:28.101Z,1.87
2023-01-17T10:34:35.861Z,2.13
2023-01-17T10:39:39.484Z,2.00
2023-01-17T10:44:49.077Z,1.80
2023-01-17T10:49:54.142Z,2.33
2023-01-17T10:55:05.315Z,2.20
2023-01-17T11:00:27.013Z,2.03
2023-01-17T11:05:31.563Z,2.70
2023-01-17T11:10:38.000Z,2.53
2023-01-17T11:15:48.811Z,1.80
2023-01-17T11:20:52.124Z,2.20
2023-01-17T11:25:58.143Z,2.10
2023-01-17T11:31:07.685Z,2.07
2023-01-17T11:36:16.573Z,2.07
2023-01-17T11:41:22.770Z,2.60
2023-01-17T11:46:29.831Z,4.90
2023-01-17T11:51:34.543Z,2.40
2023-01-17T11:56:38.307Z,4.77
2023-01-17T12:01:47.194Z,2.87
2023-01-17T12:06:58.429Z,4.73
2023-01-17T12:12:25.046Z,4.63
2023-01-17T12:17:36.683Z,2.90
2023-01-17T12:23:01.296Z,2.53
2023-01-17T12:28:21.378Z,5.07
2023-01-17T12:33:27.033Z,5.90
2023-01-17T12:38:34.226Z,5.40
2023-01-17T12:43:38.696Z,4.43
2023-01-17T12:48:43.949Z,3.67
2023-01-17T12:53:49.847Z,5.10
2023-01-17T12:58:55.751Z,7.90
2023-01-17T13:04:06.042Z,4.00
2023-01-17T13:09:11.023Z,27.83
2023-01-17T13:14:14.277Z,4.37
2023-01-17T13:19:23.736Z,3.20
2023-01-17T13:24:29.504Z,6.00
2023-01-17T13:29:37.653Z,6.30
2023-01-17T13:34:49.082Z,9.40
2023-01-17T13:40:01.382Z,12.23
2023-01-17T13:45:08.113Z,5.30
2023-01-17T13:50:35.611Z,3.17
2023-01-17T13:55:46.976Z,2.80
2023-01-17T14:00:51.805Z,3.30
2023-01-17T14:05:57.493Z,2.53
2023-01-17T14:11:09.897Z,4.20
2023-01-17T14:16:26.762Z,11.87
2023-01-17T14:21:31.793Z,2.40
2023-01-17T14:26:45.456Z,4.00
2023-01-17T14:31:49.749Z,3.70
2023-01-17T14:36:53.103Z,3.93
2023-01-17T14:41:58.383Z,4.90
2023-01-17T14:47:01.768Z,14.60
2023-01-17T14:52:07.375Z,8.77
2023-01-17T14:57:24.060Z,5.33
2023-01-17T15:02:27.791Z,3.80
2023-01-17T15:07:32.419Z,3.40
2023-01-17T15:12:39.122Z,5.47
2023-01-17T15:17:42.934Z,5.23
2023-01-17T15:22:46.597Z,5.53
2023-01-17T15:27:51.228Z,5.93
2023-01-17T15:32:54.499Z,4.23
2023-01-17T15:37:58.352Z,4.33
2023-01-17T15:43:06.766Z,3.17
2023-01-17T15:48:28.004Z,3.20
2023-01-17T15:53:32.569Z,6.57
2023-01-17T15:58:37.293Z,9.17
2023-01-17T16:03:40.717Z,11.73
2023-01-17T16:08:52.959Z,9.60
2023-01-17T16:13:57.695Z,59.63
2023-01-17T16:19:02.671Z,48.17
2023-01-17T16:24:07.131Z,34.07
2023-01-17T16:29:12.033Z,33.37
2023-01-17T16:34:15.281Z,41.10
2023-01-17T16:39:19.113Z,9.67
2023-01-17T16:44:23.848Z,13.70
2023-01-17T16:49:28.096Z,10.43
2023-01-17T16:54:31.367Z,5.07
2023-01-17T16:59:49.968Z,4.63
2023-01-17T17:04:53.880Z,7.53
2023-01-17T17:09:57.405Z,4.67
2023-01-17T17:15:15.414Z,4.80
2023-01-17T17:20:18.842Z,4.30
2023-01-17T17:25:22.374Z,4.53
2023-01-17T17:30:27.339Z,3.77
2023-01-17T17:35:30.669Z,8.20
2023-01-17T17:40:35.347Z,5.73
2023-01-17T17:45:40.027Z,4.60
2023-01-17T17:50:43.629Z,12.87
2023-01-17T17:55:46.893Z,5.87
2023-01-17T18:00:51.995Z,5.93
2023-01-17T18:06:01.242Z,5.80
2023-01-17T18:11:05.392Z,8.67
2023-01-17T18:16:11.711Z,6.33
2023-01-17T18:21:16.175Z,20.30
2023-01-17T18:26:20.946Z,12.23
2023-01-17T18:31:27.220Z,17.10
2023-01-17T18:36:42.774Z,6.43
2023-01-17T18:41:47.198Z,6.67
2023-01-17T18:46:52.174Z,9.27
2023-01-17T18:51:55.435Z,13.50
2023-01-17T18:56:59.147Z,22.73
2023-01-17T19:02:03.894Z,7.23
2023-01-17T19:07:07.271Z,17.53
2023-01-17T19:12:10.583Z,6.53
2023-01-17T19:17:15.512Z,3.63
2023-01-17T19:22:18.800Z,5.77
2023-01-17T19:27:22.254Z,10.00
2023-01-17T19:32:27.043Z,9.20
2023-01-17T19:37:30.373Z,10.67
2023-01-17T19:42:33.743Z,5.00
2023-01-17T19:47:39.581Z,4.50
2023-01-17T19:52:43.187Z,3.37
2023-01-17T19:57:47.271Z,3.47
2023-01-17T20:02:52.129Z,4.17
2023-01-17T20:07:55.591Z,3.13
2023-01-17T20:12:59.082Z,4.20
2023-01-17T20:18:05.052Z,5.00
2023-01-17T20:23:08.644Z,4.07
2023-01-17T20:28:12.281Z,4.97
2023-01-17T20:33:18.788Z,3.67
2023-01-17T20:38:22.218Z,3.60
2023-01-17T20:43:25.417Z,14.27
2023-01-17T20:48:30.864Z,29.23
2023-01-17T20:53:34.713Z,39.33
2023-01-17T20:58:38.710Z,5.47
2023-01-17T21:03:43.353Z,5.20
2023-01-17T21:08:47.234Z,4.80
2023-01-17T21:13:51.356Z,4.30
2023-01-17T21:18:56.279Z,5.50
2023-01-17T21:24:00.359Z,5.33
2023-01-17T21:29:03.996Z,4.80
2023-01-17T21:34:10.188Z,5.07
2023-01-17T21:39:15.754Z,5.60
2023-01-17T21:44:20.413Z,5.57
2023-01-17T21:49:25.353Z,5.13
2023-01-17T21:54:46.583Z,6.93
2023-01-17T21:59:50.046Z,6.13
2023-01-17T22:04:56.365Z,8.23
2023-01-17T22:09:59.801Z,8.17
2023-01-17T22:15:04.236Z,6.03
2023-01-17T22:20:12.121Z,6.57
2023-01-17T22:25:15.413Z,6.30
2023-01-17T22:30:19.782Z,7.10
2023-01-17T22:35:24.624Z,7.20
2023-01-17T22:40:28.005Z,7.73
2023-01-17T22:45:31.443Z,8.17
2023-01-17T22:50:36.649Z,8.03
2023-01-17T22:55:40.035Z,11.23
2023-01-17T23:00:44.393Z,8.97
2023-01-17T23:05:49.091Z,9.20
2023-01-17T23:11:10.035Z,7.83
2023-01-17T23:16:31.221Z,10.23
2023-01-17T23:21:49.709Z,8.17
2023-01-17T23:27:06.906Z,8.07
2023-01-17T23:32:10.357Z,6.77
2023-01-17T23:37:15.154Z,7.93
2023-01-17T23:42:35.917Z,8.57
2023-01-17T23:47:39.417Z,7.73
2023-01-17T23:52:44.177Z,8.20
2023-01-17T23:57:49.673Z,7.83
